createdAt,value
2018-04-18T00:02:01.178Z,67.53
2018-04-18T00:04:29.431Z,67.58
2018-04-18T00:06:57.726Z,67.57
2018-04-18T00:09:26.002Z,67.39
2018-04-18T00:11:54.410Z,67.93
2018-04-18T00:14:22.695Z,67.84
2018-04-18T00:16:51.950Z,67.41
2018-04-18T00:19:20.220Z,68.05
2018-04-18T00:21:48.492Z,67.52
2018-04-18T00:24:16.773Z,69.11
2018-04-18T00:26:45.061Z,68.52
2018-04-18T00:29:13.315Z,68.35
2018-04-18T00:31:41.595Z,67.63
2018-04-18T00:34:09.851Z,68.35
2018-04-18T00:36:38.131Z,68.79
2018-04-18T00:39:06.403Z,68.32
2018-04-18T00:41:34.695Z,69.43
2018-04-18T00:44:02.974Z,69.96
2018-04-18T00:46:31.291Z,70.30
2018-04-18T00:49:00.329Z,70.17
2018-04-18T00:51:28.624Z,70.29
2018-04-18T00:53:57.209Z,70.56
2018-04-18T00:56:25.516Z,71.21
2018-04-18T00:58:54.543Z,69.73
2018-04-18T01:01:22.806Z,70.09
2018-04-18T01:03:51.124Z,69.59
2018-04-18T01:06:19.383Z,69.71
2018-04-18T01:08:47.672Z,69.61
2018-04-18T01:11:15.962Z,69.69
2018-04-18T01:13:44.300Z,70.72
2018-04-18T01:16:12.563Z,71.09
2018-04-18T01:18:40.855Z,70.65
2018-04-18T01:21:09.114Z,69.77
2018-04-18T01:23:37.406Z,69.91
2018-04-18T01:26:05.780Z,70.75
2018-04-18T01:28:34.082Z,70.29
2018-04-18T01:31:02.343Z,70.82
2018-04-18T01:33:30.613Z,71.58
2018-04-18T01:35:59.171Z,71.44
2018-04-18T01:38:27.467Z,71.00
2018-04-18T01:40:55.755Z,70.37
2018-04-18T01:43:24.023Z,70.49
2018-04-18T01:45:52.288Z,70.89
2018-04-18T01:48:20.577Z,72.07
2018-04-18T01:50:48.841Z,71.74
2018-04-18T01:53:17.128Z,72.65
2018-04-18T01:55:45.388Z,72.64
2018-04-18T01:58:13.645Z,73.19
2018-04-18T02:00:41.942Z,74.42
2018-04-18T02:03:10.218Z,73.66
2018-04-18T02:05:38.622Z,73.22
2018-04-18T02:08:06.884Z,73.41
2018-04-18T02:10:35.149Z,73.53
2018-04-18T02:13:03.730Z,73.35
2018-04-18T02:18:06.545Z,73.22
2018-04-18T02:20:35.272Z,73.46
2018-04-18T02:23:04.577Z,73.89
2018-04-18T02:25:33.622Z,73.54
2018-04-18T02:28:01.904Z,73.25
2018-04-18T02:30:30.197Z,74.03
2018-04-18T02:32:58.507Z,74.05
2018-04-18T02:35:26.838Z,74.82
2018-04-18T02:37:55.104Z,75.01
2018-04-18T02:40:23.368Z,74.91
2018-04-18T02:42:51.645Z,74.44
2018-04-18T02:45:19.918Z,75.75
2018-04-18T02:47:48.215Z,75.26
2018-04-18T02:50:16.475Z,75.48
2018-04-18T02:52:44.750Z,75.80
2018-04-18T02:55:13.038Z,75.30
2018-04-18T02:57:41.301Z,76.08
2018-04-18T03:00:09.602Z,76.57
2018-04-18T03:02:37.861Z,76.38
2018-04-18T03:05:06.324Z,77.00
2018-04-18T03:07:34.597Z,77.68
2018-04-18T03:10:02.875Z,77.63
2018-04-18T03:12:31.245Z,77.91
2018-04-18T03:14:59.525Z,77.29
2018-04-18T03:17:27.792Z,77.74
2018-04-18T03:19:56.061Z,77.76
2018-04-18T03:22:24.418Z,77.12
2018-04-18T03:24:53.467Z,76.93
2018-04-18T03:27:21.723Z,76.73
2018-04-18T03:29:50.002Z,77.14
2018-04-18T03:32:18.277Z,78.22
2018-04-18T03:34:46.576Z,77.75
2018-04-18T03:37:16.340Z,77.65
2018-04-18T03:39:44.620Z,77.42
2018-04-18T03:42:12.887Z,78.00
2018-04-18T03:44:41.148Z,78.22
2018-04-18T03:47:09.493Z,78.07
2018-04-18T03:49:37.762Z,78.24
2018-04-18T03:52:06.050Z,78.34
2018-04-18T03:54:35.090Z,78.63
2018-04-18T03:57:03.363Z,79.22
2018-04-18T03:59:31.663Z,78.98
2018-04-18T04:01:59.983Z,78.19
2018-04-18T04:04:29.008Z,78.55
2018-04-18T04:06:57.284Z,79.35
2018-04-18T04:09:25.556Z,78.93
2018-04-18T04:11:53.823Z,78.45
2018-04-18T04:14:22.120Z,78.66
2018-04-18T04:17:07.946Z,78.42
2018-04-18T04:19:54.730Z,78.54
2018-04-18T04:22:40.724Z,79.68
2018-04-18T04:25:09.220Z,78.28
2018-04-18T04:27:37.509Z,79.29
2018-04-18T04:30:06.674Z,79.13
2018-04-18T04:32:35.735Z,79.59
2018-04-18T04:35:03.999Z,79.69
2018-04-18T04:37:32.254Z,78.86
2018-04-18T04:40:01.315Z,78.59
2018-04-18T04:42:29.591Z,79.23
2018-04-18T04:44:57.896Z,78.90
2018-04-18T04:47:26.922Z,78.40
2018-04-18T04:49:55.303Z,78.87
2018-04-18T04:52:23.561Z,79.10
2018-04-18T04:54:51.851Z,79.14
2018-04-18T04:57:20.124Z,78.68
2018-04-18T04:59:48.400Z,78.76
2018-04-18T05:02:16.856Z,78.88
2018-04-18T05:04:45.275Z,78.10
2018-04-18T05:07:13.554Z,77.73
2018-04-18T05:09:41.837Z,77.90
2018-04-18T05:12:10.098Z,78.43
2018-04-18T05:14:38.361Z,79.13
2018-04-18T05:17:06.654Z,78.46
2018-04-18T05:19:34.969Z,78.51
2018-04-18T05:22:04.029Z,78.46
2018-04-18T05:24:32.322Z,79.12
2018-04-18T05:27:00.759Z,79.70
2018-04-18T05:29:29.061Z,78.58
2018-04-18T05:31:57.375Z,78.00
2018-04-18T05:34:26.399Z,78.04
2018-04-18T05:36:54.690Z,78.01
2018-04-18T05:39:23.014Z,77.25
2018-04-18T05:41:52.082Z,78.23
2018-04-18T05:44:20.470Z,78.72
2018-04-18T05:46:48.864Z,77.82
2018-04-18T05:49:17.901Z,77.85
2018-04-18T05:51:46.212Z,77.90
2018-04-18T05:54:14.485Z,76.58
2018-04-18T05:56:42.790Z,76.50
2018-04-18T05:59:11.838Z,77.23
2018-04-18T06:01:40.167Z,77.67
2018-04-18T06:04:09.210Z,78.05
2018-04-18T06:06:37.488Z,77.26
2018-04-18T06:09:06.565Z,77.14
2018-04-18T06:11:34.840Z,77.37
2018-04-18T06:14:03.134Z,78.40
2018-04-18T06:16:31.422Z,78.27
2018-04-18T06:18:59.745Z,78.28
2018-04-18T06:21:28.032Z,78.39
2018-04-18T06:23:56.323Z,77.90
2018-04-18T06:26:24.992Z,77.36
2018-04-18T06:28:53.331Z,75.97
2018-04-18T06:31:21.645Z,75.92
2018-04-18T06:33:50.062Z,76.36
2018-04-18T06:36:18.353Z,76.11
2018-04-18T06:38:47.499Z,74.78
2018-04-18T06:41:15.782Z,74.78
2018-04-18T06:43:44.058Z,74.07
2018-04-18T06:46:12.335Z,74.05
2018-04-18T06:48:40.817Z,74.15
2018-04-18T06:51:09.114Z,73.72
2018-04-18T06:53:37.513Z,73.38
2018-04-18T06:56:06.548Z,71.39
2018-04-18T06:58:34.819Z,70.90
2018-04-18T07:01:03.109Z,70.99
2018-04-18T07:03:31.407Z,70.56
2018-04-18T07:05:59.675Z,70.88
2018-04-18T07:08:28.213Z,70.02
2018-04-18T07:10:56.482Z,70.67
2018-04-18T07:13:24.737Z,69.97
2018-04-18T07:15:53.795Z,69.01
2018-04-18T07:18:22.067Z,68.20
2018-04-18T07:20:50.328Z,68.50
2018-04-18T07:23:18.606Z,69.01
2018-04-18T07:25:46.872Z,68.54
2018-04-18T07:28:15.165Z,67.99
2018-04-18T07:30:43.426Z,67.02
2018-04-18T07:33:11.742Z,66.69
2018-04-18T07:35:40.026Z,67.14
2018-04-18T07:38:08.360Z,66.12
2018-04-18T07:40:36.939Z,64.87
2018-04-18T07:43:05.414Z,64.52
2018-04-18T07:45:34.725Z,64.71
2018-04-18T07:48:03.092Z,64.42
2018-04-18T07:50:31.885Z,65.32
2018-04-18T07:53:00.154Z,65.42
2018-04-18T07:55:28.470Z,64.62
2018-04-18T07:57:56.734Z,64.88
2018-04-18T08:00:25.168Z,64.12
2018-04-18T08:02:53.425Z,63.29
2018-04-18T08:05:21.706Z,63.42
2018-04-18T08:07:49.993Z,62.65
2018-04-18T08:10:18.292Z,62.72
2018-04-18T08:12:46.578Z,61.50
2018-04-18T08:15:14.897Z,61.92
2018-04-18T08:17:43.938Z,61.83
2018-04-18T08:20:12.218Z,61.41
2018-04-18T08:22:45.561Z,61.36
2018-04-18T08:25:14.821Z,60.01
2018-04-18T08:27:57.887Z,61.97
2018-04-18T08:30:26.200Z,61.33
2018-04-18T08:32:54.451Z,60.72
2018-04-18T08:35:22.745Z,59.33
2018-04-18T08:37:51.017Z,59.64
2018-04-18T08:40:24.421Z,59.25
2018-04-18T08:42:52.701Z,58.93
2018-04-18T08:45:20.976Z,56.60
2018-04-18T08:47:49.300Z,56.33
2018-04-18T08:50:18.345Z,56.58
2018-04-18T08:52:46.631Z,56.87
2018-04-18T08:55:14.901Z,57.09
2018-04-18T08:57:43.218Z,56.35
2018-04-18T09:00:11.514Z,56.28
2018-04-18T09:02:39.807Z,55.47
2018-04-18T09:05:08.078Z,55.44
2018-04-18T09:07:36.375Z,55.34
2018-04-18T09:10:04.691Z,54.91
2018-04-18T09:12:33.746Z,54.21
2018-04-18T09:15:02.074Z,53.52
2018-04-18T09:17:30.345Z,53.82
2018-04-18T09:19:58.634Z,53.51
2018-04-18T09:22:26.898Z,52.36
2018-04-18T09:24:55.941Z,51.71
2018-04-18T09:27:24.384Z,50.32
2018-04-18T09:29:52.680Z,47.86
2018-04-18T09:32:20.962Z,43.97
2018-04-18T09:34:49.355Z,43.25
2018-04-18T09:37:17.640Z,42.13
2018-04-18T09:39:46.041Z,41.04
2018-04-18T09:42:14.987Z,38.61
2018-04-18T09:44:43.529Z,38.98
2018-04-18T09:47:12.607Z,37.31
2018-04-18T09:49:42.267Z,36.86
2018-04-18T09:52:10.541Z,37.14
2018-04-18T09:54:38.868Z,36.89
2018-04-18T09:57:07.937Z,36.36
2018-04-18T09:59:36.250Z,35.78
2018-04-18T10:02:09.980Z,35.62
2018-04-18T10:04:43.863Z,34.68
2018-04-18T10:07:12.898Z,35.85
2018-04-18T10:09:41.426Z,36.27
2018-04-18T10:12:09.813Z,34.63
2018-04-18T10:14:38.112Z,31.60
2018-04-18T10:17:06.606Z,29.34
2018-04-18T10:19:34.971Z,31.08
2018-04-18T10:22:03.277Z,31.01
2018-04-18T10:24:31.544Z,33.11
2018-04-18T10:26:59.862Z,34.64
2018-04-18T10:29:28.894Z,33.60
2018-04-18T10:31:57.191Z,32.62
2018-04-18T10:34:25.572Z,30.83
2018-04-18T10:36:53.825Z,32.21
2018-04-18T10:39:22.099Z,31.24
2018-04-18T10:41:50.388Z,25.46
2018-04-18T10:44:18.671Z,27.05
2018-04-18T10:46:47.220Z,24.92
2018-04-18T10:49:15.499Z,24.87
2018-04-18T10:51:43.754Z,24.71
2018-04-18T10:54:12.206Z,25.93
2018-04-18T10:56:40.483Z,25.00
2018-04-18T10:59:08.824Z,25.22
2018-04-18T11:01:37.168Z,24.08
2018-04-18T11:04:05.465Z,23.85
2018-04-18T11:06:33.750Z,23.06
2018-04-18T11:09:02.114Z,23.39
2018-04-18T11:11:30.349Z,24.68
2018-04-18T11:13:59.377Z,23.86
2018-04-18T11:16:27.657Z,23.58
2018-04-18T11:18:55.963Z,24.44
2018-04-18T11:21:24.264Z,24.75
2018-04-18T11:23:52.589Z,24.03
2018-04-18T11:26:20.871Z,23.95
2018-04-18T11:28:49.527Z,23.94
2018-04-18T11:31:17.795Z,23.57
2018-04-18T11:33:46.063Z,23.46
2018-04-18T11:36:14.341Z,22.31
2018-04-18T11:38:42.729Z,22.75
2018-04-18T11:41:11.012Z,23.75
2018-04-18T11:43:39.647Z,22.54
2018-04-18T11:46:08.018Z,23.97
2018-04-18T11:48:37.105Z,22.10
2018-04-18T11:51:05.404Z,22.26
2018-04-18T11:53:33.667Z,24.27
2018-04-18T11:56:01.995Z,22.31
2018-04-18T11:58:30.256Z,22.94
2018-04-18T12:00:58.533Z,22.20
2018-04-18T12:03:26.806Z,22.69
2018-04-18T12:05:55.117Z,22.19
2018-04-18T12:08:23.415Z,22.82
2018-04-18T12:10:51.681Z,22.63
2018-04-18T12:13:20.078Z,23.08
2018-04-18T12:15:48.342Z,22.51
2018-04-18T12:18:16.776Z,21.71
2018-04-18T12:20:45.055Z,22.01
2018-04-18T12:23:13.326Z,21.49
2018-04-18T12:25:41.603Z,21.13
2018-04-18T12:28:09.854Z,21.95
2018-04-18T12:30:38.179Z,20.60
2018-04-18T12:33:06.434Z,21.92
2018-04-18T12:35:34.733Z,21.62
2018-04-18T12:38:02.996Z,21.54
2018-04-18T12:40:31.350Z,21.97
2018-04-18T12:42:59.658Z,21.62
2018-04-18T12:45:27.947Z,20.96
2018-04-18T12:47:56.293Z,21.60
2018-04-18T12:50:24.864Z,23.67
2018-04-18T12:52:53.419Z,25.46
2018-04-18T12:55:22.453Z,25.36
2018-04-18T12:57:50.721Z,26.37
2018-04-18T13:00:19.069Z,27.33
2018-04-18T13:02:47.400Z,26.98
2018-04-18T13:05:15.659Z,26.62
2018-04-18T13:07:43.964Z,27.51
2018-04-18T13:10:12.263Z,27.16
2018-04-18T13:12:41.307Z,28.00
2018-04-18T13:15:09.563Z,26.62
2018-04-18T13:17:37.872Z,28.07
2018-04-18T13:20:06.139Z,29.81
2018-04-18T13:22:34.458Z,28.97
2018-04-18T13:25:04.250Z,27.80
2018-04-18T13:27:32.533Z,28.39
2018-04-18T13:30:02.005Z,27.47
2018-04-18T13:32:30.287Z,28.54
2018-04-18T13:34:58.548Z,28.70
2018-04-18T13:37:26.819Z,28.92
2018-04-18T13:39:55.300Z,28.36
2018-04-18T13:42:23.579Z,28.66
2018-04-18T13:44:51.858Z,28.05
2018-04-18T13:47:20.129Z,28.30
2018-04-18T13:49:48.430Z,27.78
2018-04-18T13:52:16.720Z,30.53
2018-04-18T13:54:45.816Z,29.45
2018-04-18T13:57:14.156Z,27.75
2018-04-18T13:59:42.526Z,27.20
2018-04-18T14:02:10.868Z,28.98
2018-04-18T14:04:39.085Z,28.37
2018-04-18T14:07:07.445Z,28.00
2018-04-18T14:09:35.722Z,28.38
2018-04-18T14:12:04.391Z,28.14
2018-04-18T14:14:32.693Z,28.73
2018-04-18T14:17:01.070Z,28.55
2018-04-18T14:19:29.403Z,26.89
2018-04-18T14:21:57.677Z,28.03
2018-04-18T14:24:25.945Z,28.95
2018-04-18T14:26:54.255Z,28.14
2018-04-18T14:29:22.626Z,28.04
2018-04-18T14:31:50.954Z,29.14
2018-04-18T14:34:19.184Z,27.56
2018-04-18T14:36:47.491Z,26.79
2018-04-18T14:39:15.879Z,27.12
2018-04-18T14:41:44.179Z,27.36
2018-04-18T14:44:12.467Z,27.92
2018-04-18T14:46:40.727Z,27.02
2018-04-18T14:49:09.775Z,28.29
2018-04-18T14:51:38.046Z,27.19
2018-04-18T14:54:06.649Z,28.27
2018-04-18T14:56:34.989Z,27.92
2018-04-18T14:59:03.270Z,27.25
2018-04-18T15:01:31.535Z,27.65
2018-04-18T15:03:59.819Z,28.04
2018-04-18T15:06:28.177Z,26.53
2018-04-18T15:08:56.475Z,26.89
2018-04-18T15:11:24.769Z,28.08
2018-04-18T15:13:53.031Z,26.71
2018-04-18T15:16:21.417Z,26.91
2018-04-18T15:18:49.671Z,26.86
2018-04-18T15:21:17.946Z,26.78
2018-04-18T15:23:46.215Z,26.93
2018-04-18T15:26:14.514Z,28.47
2018-04-18T15:28:43.058Z,27.60
2018-04-18T15:31:11.596Z,27.34
2018-04-18T15:33:39.910Z,27.46
2018-04-18T15:36:08.193Z,26.94
2018-04-18T15:38:36.468Z,27.52
2018-04-18T15:41:04.755Z,26.05
2018-04-18T15:43:33.017Z,26.22
2018-04-18T15:46:01.304Z,24.89
2018-04-18T15:48:29.587Z,25.39
2018-04-18T15:50:57.857Z,25.59
2018-04-18T15:53:26.137Z,25.17
2018-04-18T15:55:54.499Z,24.84
2018-04-18T15:58:22.813Z,25.89
2018-04-18T16:00:51.331Z,25.46
2018-04-18T16:03:20.650Z,25.97
2018-04-18T16:05:48.972Z,25.06
2018-04-18T16:08:17.519Z,24.28
2018-04-18T16:10:46.132Z,23.62
2018-04-18T16:13:15.336Z,24.57
2018-04-18T16:15:43.755Z,23.99
2018-04-18T16:18:12.088Z,24.34
2018-04-18T16:20:40.387Z,24.04
2018-04-18T16:23:09.453Z,23.94
2018-04-18T16:25:37.875Z,25.03
2018-04-18T16:28:06.544Z,24.89
2018-04-18T16:30:41.624Z,24.72
2018-04-18T16:33:09.942Z,24.50
2018-04-18T16:35:38.397Z,25.69
2018-04-18T16:38:06.674Z,26.80
2018-04-18T16:40:35.250Z,27.46
2018-04-18T16:43:03.825Z,27.77
2018-04-18T16:45:32.421Z,27.24
2018-04-18T16:48:00.815Z,26.94
2018-04-18T16:50:29.213Z,27.32
2018-04-18T16:52:57.749Z,28.51
2018-04-18T16:55:26.324Z,27.17
2018-04-18T16:57:54.907Z,27.99
2018-04-18T17:00:23.384Z,28.28
2018-04-18T17:02:52.217Z,28.81
2018-04-18T17:05:20.823Z,28.83
2018-04-18T17:07:49.202Z,29.52
2018-04-18T17:10:17.551Z,29.54
2018-04-18T17:12:46.041Z,29.68
2018-04-18T17:15:14.617Z,30.26
2018-04-18T17:17:43.007Z,29.76
2018-04-18T17:20:11.372Z,30.04
2018-04-18T17:22:41.766Z,29.98
2018-04-18T17:25:10.088Z,29.95
2018-04-18T17:27:38.476Z,30.40
2018-04-18T17:30:07.608Z,30.85
2018-04-18T17:32:36.455Z,31.30
2018-04-18T17:35:05.546Z,30.73
2018-04-18T17:37:34.786Z,30.28
2018-04-18T17:40:03.291Z,30.22
2018-04-18T17:42:35.661Z,31.60
2018-04-18T17:45:04.048Z,31.73
2018-04-18T17:47:32.390Z,31.67
2018-04-18T17:50:00.721Z,31.54
2018-04-18T17:52:29.170Z,31.73
2018-04-18T17:54:57.552Z,32.54
2018-04-18T17:57:26.259Z,33.94
2018-04-18T17:59:54.579Z,32.78
2018-04-18T18:02:22.883Z,32.98
2018-04-18T18:04:51.227Z,32.74
2018-04-18T18:07:19.547Z,33.31
2018-04-18T18:09:47.893Z,33.18
2018-04-18T18:12:16.283Z,33.90
2018-04-18T18:14:45.090Z,33.80
2018-04-18T18:17:13.629Z,34.24
2018-04-18T18:19:41.920Z,34.53
2018-04-18T18:22:10.291Z,34.56
2018-04-18T18:24:38.673Z,35.82
2018-04-18T18:27:07.046Z,38.59
2018-04-18T18:29:35.366Z,40.67
2018-04-18T18:32:03.830Z,41.07
2018-04-18T18:34:32.209Z,40.94
2018-04-18T18:37:00.652Z,42.52
2018-04-18T18:39:29.109Z,40.77
2018-04-18T18:41:57.458Z,42.63
2018-04-18T18:44:25.842Z,43.53
2018-04-18T18:46:54.266Z,45.24
2018-04-18T18:49:22.975Z,43.67
2018-04-18T18:51:51.391Z,44.77
2018-04-18T18:54:20.749Z,45.80
2018-04-18T18:56:49.092Z,45.60
2018-04-18T18:59:17.390Z,45.69
2018-04-18T19:01:45.792Z,46.03
2018-04-18T19:04:14.352Z,47.01
2018-04-18T19:06:42.735Z,47.19
2018-04-18T19:09:11.040Z,47.41
2018-04-18T19:11:39.540Z,47.71
2018-04-18T19:14:08.172Z,48.27
2018-04-18T19:16:36.718Z,49.88
2018-04-18T19:19:05.205Z,49.99
2018-04-18T19:21:33.559Z,49.77
2018-04-18T19:24:02.922Z,50.60
2018-04-18T19:26:31.287Z,50.16
2018-04-18T19:28:59.640Z,51.32
2018-04-18T19:31:28.001Z,51.64
2018-04-18T19:33:57.132Z,51.49
2018-04-18T19:36:25.611Z,51.36
2018-04-18T19:38:54.354Z,50.64
2018-04-18T19:41:47.196Z,49.79
2018-04-18T19:44:33.705Z,50.98
2018-04-18T19:47:02.188Z,50.78
2018-04-18T19:49:31.543Z,50.65
2018-04-18T19:52:00.174Z,50.54
2018-04-18T19:54:28.617Z,50.30
2018-04-18T19:56:57.178Z,50.88
2018-04-18T19:59:26.395Z,51.77
2018-04-18T20:01:55.909Z,51.78
2018-04-18T20:04:24.576Z,52.22
2018-04-18T20:06:53.095Z,52.75
2018-04-18T20:09:21.386Z,52.41
2018-04-18T20:11:49.713Z,52.38
2018-04-18T20:14:17.972Z,50.32
2018-04-18T20:16:46.239Z,50.40
2018-04-18T20:19:14.582Z,48.64
2018-04-18T20:21:43.625Z,46.13
2018-04-18T20:24:11.966Z,47.76
2018-04-18T20:26:40.999Z,46.49
2018-04-18T20:29:09.309Z,42.76
2018-04-18T20:31:38.594Z,41.49
2018-04-18T20:34:06.851Z,39.96
2018-04-18T20:36:50.834Z,40.25
2018-04-18T20:39:19.870Z,42.36
2018-04-18T20:41:56.079Z,38.49
2018-04-18T20:44:25.154Z,37.51
2018-04-18T20:46:53.491Z,37.34
2018-04-18T20:49:21.772Z,36.54
2018-04-18T20:51:50.059Z,36.85
2018-04-18T20:54:18.347Z,38.58
2018-04-18T20:56:46.822Z,38.33
2018-04-18T20:59:15.095Z,40.02
2018-04-18T21:01:43.476Z,40.06
2018-04-18T21:04:12.000Z,42.98
2018-04-18T21:06:41.391Z,41.70
2018-04-18T21:09:10.430Z,42.43
2018-04-18T21:11:38.741Z,43.63
2018-04-18T21:14:07.049Z,43.94
2018-04-18T21:16:36.345Z,44.03
2018-04-18T21:19:04.625Z,45.57
2018-04-18T21:21:32.906Z,46.13
2018-04-18T21:24:01.206Z,46.41
2018-04-18T21:26:29.491Z,47.16
2018-04-18T21:28:57.754Z,47.25
2018-04-18T21:31:26.047Z,46.06
2018-04-18T21:33:54.329Z,46.00
2018-04-18T21:36:22.597Z,46.12
2018-04-18T21:38:50.913Z,47.88
2018-04-18T21:41:19.938Z,47.44
2018-04-18T21:43:48.256Z,48.28
2018-04-18T21:46:16.514Z,47.54
2018-04-18T21:48:44.793Z,46.36
2018-04-18T21:51:13.250Z,46.20
2018-04-18T21:53:41.567Z,46.92
2018-04-18T21:56:09.915Z,46.81
2018-04-18T21:58:38.190Z,46.54
2018-04-18T22:01:06.472Z,47.21
2018-04-18T22:03:34.734Z,45.98
2018-04-18T22:06:03.021Z,45.46
2018-04-18T22:08:31.349Z,46.28
2018-04-18T22:10:59.685Z,46.28
2018-04-18T22:13:27.955Z,47.75
2018-04-18T22:15:56.271Z,47.93
2018-04-18T22:18:25.297Z,47.79
2018-04-18T22:20:53.576Z,48.50
2018-04-18T22:23:21.863Z,48.87
2018-04-18T22:25:50.125Z,47.91
2018-04-18T22:28:18.412Z,49.13
2018-04-18T22:30:46.701Z,48.93
2018-04-18T22:33:15.057Z,49.52
2018-04-18T22:35:43.337Z,50.22
2018-04-18T22:38:11.623Z,50.55
2018-04-18T22:40:39.897Z,49.85
2018-04-18T22:43:08.179Z,49.99
2018-04-18T22:45:36.441Z,50.09
2018-04-18T22:48:04.761Z,49.46
2018-04-18T22:50:33.795Z,48.79
2018-04-18T22:53:02.069Z,48.07
2018-04-18T22:55:30.343Z,47.26
2018-04-18T22:57:58.631Z,44.82
2018-04-18T23:00:26.891Z,44.23
2018-04-18T23:02:55.338Z,42.23
2018-04-18T23:05:24.491Z,42.21
2018-04-18T23:07:52.793Z,41.66
2018-04-18T23:10:21.049Z,41.43
2018-04-18T23:12:49.515Z,40.42
2018-04-18T23:15:17.789Z,39.78
2018-04-18T23:17:46.074Z,40.16
2018-04-18T23:20:14.360Z,39.09
2018-04-18T23:22:42.621Z,39.25
2018-04-18T23:25:10.902Z,39.24
2018-04-18T23:27:39.166Z,39.18
2018-04-18T23:30:07.451Z,39.08
2018-04-18T23:32:35.715Z,39.23
2018-04-18T23:35:03.993Z,39.73
2018-04-18T23:37:32.273Z,40.35
2018-04-18T23:40:00.570Z,42.33
2018-04-18T23:42:28.821Z,43.94
2018-04-18T23:44:57.103Z,41.35
2018-04-18T23:47:25.492Z,41.93
2018-04-18T23:49:53.897Z,41.53
2018-04-18T23:52:22.939Z,43.37
2018-04-18T23:54:51.190Z,45.85
2018-04-18T23:57:19.472Z,48.17
2018-04-18T23:59:47.727Z,48.76
